Time;durP1;ratioP1;P1;durP2;ratioP2;P2;SDS_P1;SDS_P2;PMS_P1;PMS_P2;Temp;Humidity;BMP_temperature;BMP_pressure;BME280_temperature;BME280_humidity;BME280_pressure;Samples;Min_cycle;Max_cycle;Signal;HPM_P1;HPM_P2
2022/08/29 00:00:55;;;;;;;4.15;3.15;;;12.70;99.90;;;;;;5014325;28;20124;-75
2022/08/29 00:03:21;;;;;;;4.85;3.30;;;12.60;99.90;;;;;;5034729;28;20048;-74
2022/08/29 00:05:46;;;;;;;4.25;2.90;;;12.60;99.90;;;;;;5014228;28;20046;-75
2022/08/29 00:08:12;;;;;;;3.15;2.83;;;12.70;99.90;;;;;;5031903;28;20087;-75
2022/08/29 00:10:39;;;;;;;3.45;2.83;;;12.70;99.90;;;;;;5015591;28;20041;-74
2022/08/29 00:13:07;;;;;;;4.38;2.78;;;12.70;99.90;;;;;;5030237;28;20043;-74
2022/08/29 00:15:33;;;;;;;4.72;3.25;;;12.70;99.90;;;;;;5032067;28;20045;-74
2022/08/29 00:18:00;;;;;;;5.20;3.00;;;12.70;99.90;;;;;;5015713;28;20029;-74
2022/08/29 00:20:28;;;;;;;4.15;3.25;;;12.80;99.90;;;;;;5015670;28;20053;-74
2022/08/29 00:22:54;;;;;;;4.28;2.60;;;12.80;99.90;;;;;;5029322;28;20033;-75
2022/08/29 00:25:21;;;;;;;3.88;2.90;;;12.90;99.90;;;;;;5014570;28;20053;-75
2022/08/29 00:27:47;;;;;;;4.03;2.72;;;12.90;99.90;;;;;;5016339;28;20041;-74
2022/08/29 00:30:14;;;;;;;4.85;3.17;;;12.90;99.90;;;;;;5014659;28;20106;-75
2022/08/29 00:32:40;;;;;;;4.72;3.08;;;12.90;99.90;;;;;;5031886;28;20056;-74
2022/08/29 00:35:12;;;;;;;3.63;2.72;;;13.00;99.90;;;;;;5032117;28;20128;-75
2022/08/29 00:37:39;;;;;;;3.43;2.93;;;13.00;99.90;;;;;;5015092;28;20106;-75
2022/08/29 00:40:07;;;;;;;3.42;2.60;;;13.00;99.90;;;;;;5013327;28;20518;-75
2022/08/29 00:42:34;;;;;;;3.53;2.72;;;13.00;99.90;;;;;;5015235;28;20045;-75
2022/08/29 00:45:01;;;;;;;4.45;3.20;;;13.00;99.90;;;;;;5014554;28;20048;-74
2022/08/29 00:47:32;;;;;;;3.92;3.10;;;13.00;99.90;;;;;;5015307;28;20392;-74
2022/08/29 00:50:00;;;;;;;4.43;2.95;;;13.00;99.90;;;;;;5027489;28;20042;-72
2022/08/29 00:52:43;;;;;;;3.30;2.90;;;13.10;99.90;;;;;;5028960;28;20041;-74
2022/08/29 00:55:13;;;;;;;5.07;2.97;;;13.10;99.90;;;;;;5030675;28;20114;-74
2022/08/29 00:57:43;;;;;;;3.40;2.65;;;13.10;99.90;;;;;;5029326;28;20121;-75
2022/08/29 01:00:12;;;;;;;4.18;2.88;;;13.20;99.90;;;;;;5011898;28;20044;-74
2022/08/29 01:02:39;;;;;;;4.28;3.10;;;13.20;99.90;;;;;;5015219;28;20053;-75
2022/08/29 01:05:11;;;;;;;3.42;2.67;;;13.20;99.90;;;;;;5015455;28;20045;-74
2022/08/29 01:07:38;;;;;;;4.15;3.28;;;13.20;99.90;;;;;;5014138;28;20116;-74
2022/08/29 01:10:06;;;;;;;4.05;2.67;;;13.20;99.90;;;;;;5031104;28;20035;-75
2022/08/29 01:12:34;;;;;;;4.45;3.10;;;13.20;99.90;;;;;;5031368;28;20407;-74
2022/08/29 01:15:07;;;;;;;3.65;3.15;;;13.20;99.90;;;;;;5031273;28;20541;-74
2022/08/29 01:17:39;;;;;;;4.43;3.22;;;13.30;99.90;;;;;;5030374;28;20052;-74
2022/08/29 01:20:31;;;;;;;4.40;3.38;;;13.30;99.90;;;;;;5063601;22;20045;-79
2022/08/29 01:23:05;;;;;;;4.75;4.00;;;13.30;99.90;;;;;;5044084;28;20040;-79
2022/08/29 01:25:35;;;;;;;5.60;3.42;;;13.40;99.90;;;;;;5050828;28;20048;-79
2022/08/29 01:28:14;;;;;;;4.63;3.90;;;13.30;99.90;;;;;;5048101;28;20517;-78
2022/08/29 01:31:04;;;;;;;4.50;3.72;;;13.30;99.90;;;;;;5049275;28;20033;-79
2022/08/29 01:33:47;;;;;;;5.38;3.85;;;13.30;99.90;;;;;;5051105;28;20045;-79
2022/08/29 01:36:17;;;;;;;5.25;4.22;;;13.40;99.90;;;;;;5035129;28;20040;-79
2022/08/29 01:38:43;;;;;;;4.70;3.58;;;13.30;99.90;;;;;;5050766;28;20099;-79
2022/08/29 01:41:09;;;;;;;5.65;4.00;;;13.40;99.90;;;;;;5046136;28;20522;-79
2022/08/29 01:43:44;;;;;;;6.28;4.15;;;13.40;99.90;;;;;;5031451;28;20043;-79
2022/08/29 01:46:13;;;;;;;4.72;3.83;;;13.40;99.90;;;;;;5034915;28;20129;-80
2022/08/29 01:48:40;;;;;;;4.80;3.75;;;13.40;99.90;;;;;;5034129;28;20033;-79
2022/08/29 01:51:07;;;;;;;5.30;3.88;;;13.40;99.90;;;;;;5033699;28;20410;-79
2022/08/29 01:53:33;;;;;;;6.43;4.40;;;13.40;99.90;;;;;;5050208;28;20506;-79
2022/08/29 01:55:59;;;;;;;4.85;3.67;;;13.40;99.90;;;;;;5051329;28;20048;-79
2022/08/29 01:58:25;;;;;;;5.35;4.00;;;13.40;99.90;;;;;;5048788;28;20044;-79
2022/08/29 02:00:51;;;;;;;5.18;3.97;;;13.50;99.90;;;;;;5028021;28;20097;-79
2022/08/29 02:03:17;;;;;;;4.95;4.18;;;13.50;99.90;;;;;;5050557;28;20510;-79
2022/08/29 02:05:46;;;;;;;5.68;3.67;;;13.40;99.90;;;;;;5031450;28;20045;-79
2022/08/29 02:08:11;;;;;;;4.80;3.85;;;13.50;99.90;;;;;;5025443;28;20033;-79
2022/08/29 02:10:37;;;;;;;5.47;3.72;;;13.50;99.90;;;;;;5048944;28;20044;-79
2022/08/29 02:13:03;;;;;;;6.07;3.97;;;13.40;99.90;;;;;;5050346;28;20398;-79
2022/08/29 02:15:28;;;;;;;6.18;4.53;;;13.50;99.90;;;;;;5032671;28;20057;-79
2022/08/29 02:17:54;;;;;;;5.13;3.92;;;13.50;99.90;;;;;;5049088;28;20033;-79
2022/08/29 02:20:19;;;;;;;5.40;3.95;;;13.50;99.90;;;;;;5042452;28;20614;-79
2022/08/29 02:22:45;;;;;;;4.68;3.38;;;13.50;99.90;;;;;;5032151;28;20045;-79
2022/08/29 02:28:10;;;;;;;5.00;3.90;;;13.50;99.90;;;;;;5033949;28;20036;-80
2022/08/29 02:30:38;;;;;;;5.03;3.60;;;13.40;99.90;;;;;;5030110;28;20029;-79
2022/08/29 02:33:04;;;;;;;6.50;4.43;;;13.50;99.90;;;;;;5042504;28;20067;-79
2022/08/29 02:35:30;;;;;;;5.88;3.70;;;13.50;99.90;;;;;;5033814;28;20064;-79
2022/08/29 02:37:55;;;;;;;4.70;3.80;;;13.50;99.90;;;;;;5029512;28;20040;-79
2022/08/29 02:40:21;;;;;;;5.43;3.92;;;13.50;99.90;;;;;;5029607;28;20150;-78
2022/08/29 02:42:46;;;;;;;5.18;3.45;;;13.50;99.90;;;;;;5049600;28;20041;-79
2022/08/29 02:45:12;;;;;;;5.88;3.85;;;13.40;99.90;;;;;;5033372;28;20044;-79
2022/08/29 02:47:38;;;;;;;5.90;3.63;;;13.50;99.90;;;;;;5049078;28;20532;-79
2022/08/29 02:50:06;;;;;;;5.45;3.90;;;13.50;99.90;;;;;;5031864;28;20039;-79
2022/08/29 02:52:32;;;;;;;4.47;3.15;;;13.50;99.90;;;;;;5049926;28;20063;-79
2022/08/29 02:54:57;;;;;;;5.00;3.88;;;13.50;99.90;;;;;;5047333;28;20037;-80
2022/08/29 02:57:23;;;;;;;5.18;4.00;;;13.60;99.90;;;;;;5032733;28;20135;-79
2022/08/29 02:59:49;;;;;;;6.10;3.75;;;13.50;99.90;;;;;;5044034;28;20045;-79
2022/08/29 03:02:15;;;;;;;4.80;3.95;;;13.50;99.90;;;;;;5049654;28;20479;-79
2022/08/29 03:04:40;;;;;;;5.68;3.70;;;13.50;99.90;;;;;;5049902;28;20093;-79
2022/08/29 03:07:06;;;;;;;5.85;4.07;;;13.50;99.90;;;;;;5032558;28;20033;-79
2022/08/29 03:09:31;;;;;;;5.65;3.58;;;13.50;99.90;;;;;;5032791;28;20454;-79
2022/08/29 03:11:57;;;;;;;4.50;3.40;;;13.60;99.90;;;;;;5047974;28;20037;-79
2022/08/29 03:14:23;;;;;;;4.63;3.50;;;13.50;99.90;;;;;;5048260;28;20037;-79
2022/08/29 03:16:49;;;;;;;4.75;3.33;;;13.50;99.90;;;;;;5049416;28;20075;-79
2022/08/29 03:19:15;;;;;;;5.13;3.25;;;13.60;99.90;;;;;;5042975;28;20087;-79
2022/08/29 03:21:43;;;;;;;5.47;3.53;;;13.60;99.90;;;;;;5032653;28;20041;-79
2022/08/29 03:24:08;;;;;;;4.78;3.40;;;13.60;99.90;;;;;;5036482;28;20032;-79
2022/08/29 03:26:34;;;;;;;4.57;3.75;;;13.60;99.90;;;;;;5037763;28;20048;-79
2022/08/29 03:29:00;;;;;;;4.47;3.20;;;13.60;99.90;;;;;;5054155;28;20117;-79
2022/08/29 03:31:26;;;;;;;5.65;3.28;;;13.50;99.90;;;;;;5036359;28;20040;-79
2022/08/29 03:33:51;;;;;;;5.47;3.58;;;13.50;99.90;;;;;;5035435;28;20078;-79
2022/08/29 03:36:17;;;;;;;4.13;3.00;;;13.50;99.90;;;;;;5051790;28;20033;-78
2022/08/29 03:38:45;;;;;;;4.60;3.33;;;13.50;99.90;;;;;;5036659;28;20499;-79
2022/08/29 03:41:17;;;;;;;4.95;3.33;;;13.50;99.90;;;;;;5035303;28;20037;-79
2022/08/29 03:43:43;;;;;;;5.65;3.97;;;13.50;99.90;;;;;;5037076;28;20037;-79
2022/08/29 03:46:09;;;;;;;3.55;2.78;;;13.50;99.90;;;;;;5036477;28;20083;-79
2022/08/29 03:48:34;;;;;;;4.35;3.25;;;13.40;99.90;;;;;;5052472;28;20045;-79
2022/08/29 03:51:00;;;;;;;4.15;3.13;;;13.40;99.90;;;;;;5035610;28;20037;-79
2022/08/29 03:53:26;;;;;;;5.35;3.30;;;13.30;99.90;;;;;;5036793;28;20075;-78
2022/08/29 03:55:51;;;;;;;3.97;2.83;;;13.30;99.90;;;;;;5035788;28;20037;-78
2022/08/29 03:58:17;;;;;;;5.07;3.03;;;13.30;99.90;;;;;;5052699;28;20090;-78
2022/08/29 04:00:45;;;;;;;4.63;3.20;;;13.20;99.90;;;;;;5028264;28;20491;-79
2022/08/29 04:03:11;;;;;;;4.55;3.45;;;13.20;99.90;;;;;;5053728;28;20037;-79
2022/08/29 04:05:37;;;;;;;4.07;2.78;;;13.20;99.90;;;;;;5035521;28;20079;-79
2022/08/29 04:08:02;;;;;;;4.90;3.20;;;13.10;99.90;;;;;;5036758;28;20029;-79
2022/08/29 04:10:31;;;;;;;3.70;2.85;;;13.10;99.90;;;;;;5034366;28;20505;-78
2022/08/29 04:12:58;;;;;;;4.97;3.10;;;13.00;99.90;;;;;;5044585;28;20439;-79
2022/08/29 04:15:26;;;;;;;5.15;3.30;;;13.00;99.90;;;;;;5035630;28;20040;-79
2022/08/29 04:17:54;;;;;;;5.97;3.10;;;13.00;99.90;;;;;;5035204;28;20510;-78
2022/08/29 04:20:22;;;;;;;3.72;2.80;;;13.00;99.90;;;;;;5035913;28;20407;-79
2022/08/29 04:22:48;;;;;;;4.43;3.10;;;13.00;99.90;;;;;;5052368;28;20041;-79
2022/08/29 04:25:14;;;;;;;4.53;2.95;;;13.00;99.90;;;;;;5050625;28;20414;-79
2022/08/29 04:27:40;;;;;;;4.00;3.00;;;12.90;99.90;;;;;;5050876;28;20069;-79
2022/08/29 04:30:11;;;;;;;4.05;2.97;;;12.90;99.90;;;;;;5035666;28;20033;-78
2022/08/29 04:32:37;;;;;;;5.13;3.13;;;12.90;99.90;;;;;;5041485;28;20075;-79
2022/08/29 04:35:03;;;;;;;4.85;3.03;;;12.90;99.90;;;;;;5052389;28;20040;-79
2022/08/29 04:37:29;;;;;;;4.75;3.20;;;12.80;99.90;;;;;;5052150;28;20372;-79
2022/08/29 04:39:54;;;;;;;5.10;3.30;;;12.80;99.90;;;;;;5036825;28;20037;-80
2022/08/29 04:42:20;;;;;;;4.10;3.13;;;12.70;99.90;;;;;;5029297;28;20051;-79
2022/08/29 04:44:47;;;;;;;5.18;3.20;;;12.70;99.90;;;;;;5049987;28;20510;-79
2022/08/29 04:47:13;;;;;;;4.82;2.80;;;12.70;99.90;;;;;;5051542;28;20029;-80
2022/08/29 04:49:40;;;;;;;3.97;3.00;;;12.70;99.90;;;;;;5051573;28;20041;-79
2022/08/29 04:52:06;;;;;;;3.55;2.88;;;12.70;99.90;;;;;;5034403;28;20055;-79
2022/08/29 04:54:32;;;;;;;5.07;3.42;;;12.70;99.90;;;;;;5035995;28;20037;-80
2022/08/29 04:57:02;;;;;;;4.95;3.33;;;12.60;99.90;;;;;;5051405;28;20033;-79
2022/08/29 04:59:28;;;;;;;5.18;3.60;;;12.60;99.90;;;;;;5049975;28;20040;-80
2022/08/29 05:01:54;;;;;;;4.93;3.60;;;12.60;99.90;;;;;;5029521;28;20044;-79
2022/08/29 05:04:19;;;;;;;4.93;3.42;;;12.60;99.90;;;;;;5033806;28;20049;-79
2022/08/29 05:06:45;;;;;;;4.30;3.47;;;12.70;99.90;;;;;;5027353;28;20037;-79
2022/08/29 05:09:11;;;;;;;5.47;3.60;;;12.70;99.90;;;;;;5049899;28;20560;-79
2022/08/29 05:11:36;;;;;;;5.05;3.60;;;12.80;99.90;;;;;;5033856;28;20044;-79
2022/08/29 05:14:02;;;;;;;4.47;3.45;;;12.70;99.90;;;;;;5035725;28;20048;-79
2022/08/29 05:16:29;;;;;;;5.85;3.83;;;12.80;99.90;;;;;;5035405;28;20398;-76
2022/08/29 05:18:55;;;;;;;5.65;3.72;;;12.90;99.90;;;;;;5032136;28;20040;-78
2022/08/29 05:21:31;;;;;;;5.57;3.35;;;12.90;99.90;;;;;;5046134;28;20029;-76
2022/08/29 05:23:57;;;;;;;4.80;3.55;;;12.90;99.90;;;;;;5027415;28;20037;-77
2022/08/29 05:26:27;;;;;;;4.93;3.33;;;13.00;99.90;;;;;;5052461;28;20037;-78
2022/08/29 05:28:53;;;;;;;4.28;3.60;;;13.00;99.90;;;;;;5052508;28;20040;-77
2022/08/29 05:31:21;;;;;;;5.75;3.78;;;13.10;99.90;;;;;;5050706;28;20029;-78
2022/08/29 05:33:47;;;;;;;4.85;3.90;;;13.10;99.90;;;;;;5052345;28;20129;-79
2022/08/29 05:36:13;;;;;;;5.95;3.95;;;13.20;99.90;;;;;;5046046;28;20515;-78
2022/08/29 05:38:38;;;;;;;5.55;3.97;;;13.30;99.90;;;;;;5028681;28;20037;-79
2022/08/29 05:41:04;;;;;;;7.03;3.95;;;13.40;99.90;;;;;;5026146;28;20045;-79
2022/08/29 05:43:31;;;;;;;6.50;3.95;;;13.50;99.90;;;;;;5033054;28;20136;-78
2022/08/29 05:46:02;;;;;;;6.50;3.95;;;13.50;99.90;;;;;;5043465;28;20041;-79
2022/08/29 05:48:28;;;;;;;5.00;3.70;;;13.70;99.90;;;;;;5052480;28;20060;-79
2022/08/29 05:50:54;;;;;;;5.18;3.83;;;13.70;99.90;;;;;;5048251;28;20496;-79
2022/08/29 05:53:20;;;;;;;5.07;3.50;;;13.80;99.90;;;;;;5039978;28;20037;-79
2022/08/29 05:55:45;;;;;;;6.22;3.53;;;13.90;99.90;;;;;;5052432;28;20064;-79
2022/08/29 05:58:11;;;;;;;4.40;3.30;;;13.90;99.90;;;;;;5051604;28;20033;-78
2022/08/29 06:00:42;;;;;;;4.75;3.47;;;14.00;99.90;;;;;;5046176;28;20043;-78
2022/08/29 06:03:08;;;;;;;4.68;3.22;;;14.10;99.90;;;;;;5049460;28;20119;-78
2022/08/29 06:05:34;;;;;;;5.03;3.50;;;14.20;99.90;;;;;;5051442;28;20041;-79
2022/08/29 06:08:00;;;;;;;5.28;3.53;;;14.30;99.90;;;;;;5046762;28;20490;-77
2022/08/29 06:10:26;;;;;;;4.18;3.05;;;14.30;99.90;;;;;;5043992;28;20434;-79
2022/08/29 06:12:51;;;;;;;4.55;3.30;;;14.40;99.90;;;;;;5046437;28;20037;-82
2022/08/29 06:15:17;;;;;;;4.43;3.22;;;14.40;99.90;;;;;;5034222;28;20037;-82
2022/08/29 06:17:42;;;;;;;4.35;3.03;;;14.50;99.90;;;;;;5050790;28;20131;-82
2022/08/29 06:20:09;;;;;;;4.25;3.10;;;14.50;99.90;;;;;;5050924;28;20036;-82
2022/08/29 06:22:36;;;;;;;4.50;3.15;;;14.60;99.90;;;;;;5034784;28;20088;-82
2022/08/29 06:25:02;;;;;;;3.72;2.72;;;14.70;99.90;;;;;;5051184;28;20040;-82
2022/08/29 06:27:27;;;;;;;5.75;3.10;;;14.80;99.90;;;;;;5034166;28;20044;-82
2022/08/29 06:29:53;;;;;;;7.70;3.35;;;14.80;99.90;;;;;;5034329;28;20037;-82
2022/08/29 06:32:19;;;;;;;5.03;3.15;;;14.90;99.90;;;;;;5034429;28;20430;-82
2022/08/29 06:34:44;;;;;;;5.63;3.40;;;15.00;99.90;;;;;;5050956;28;20041;-82
2022/08/29 06:37:10;;;;;;;4.13;3.03;;;15.10;99.90;;;;;;5050769;28;20407;-82
2022/08/29 06:39:35;;;;;;;4.93;3.03;;;15.20;99.90;;;;;;5050797;28;20076;-82
2022/08/29 06:42:01;;;;;;;5.55;3.08;;;15.40;99.90;;;;;;5051128;28;20047;-82
2022/08/29 06:44:29;;;;;;;6.05;2.88;;;15.50;99.90;;;;;;5034194;28;20578;-82
2022/08/29 06:46:55;;;;;;;4.35;3.10;;;15.60;99.90;;;;;;5050462;28;20116;-82
2022/08/29 06:49:21;;;;;;;5.25;2.90;;;15.70;99.90;;;;;;5034227;28;20459;-82
2022/08/29 06:51:50;;;;;;;4.28;2.88;;;15.80;99.90;;;;;;5050600;28;20052;-82
2022/08/29 06:54:18;;;;;;;5.22;2.88;;;15.80;99.90;;;;;;5050588;28;20041;-82
2022/08/29 06:56:44;;;;;;;5.32;2.63;;;16.00;99.90;;;;;;5033756;28;20045;-82
2022/08/29 06:59:11;;;;;;;5.22;2.80;;;16.00;99.90;;;;;;5033915;28;20048;-82
2022/08/29 07:01:38;;;;;;;3.60;2.45;;;16.10;99.90;;;;;;5033969;28;20490;-82
2022/08/29 07:04:04;;;;;;;4.63;2.70;;;16.20;99.90;;;;;;5034395;28;20507;-82
2022/08/29 07:06:30;;;;;;;3.42;2.17;;;16.20;99.90;;;;;;5050412;28;20115;-82
2022/08/29 07:08:58;;;;;;;3.10;2.30;;;16.30;99.90;;;;;;5050271;28;20468;-82
2022/08/29 07:11:25;;;;;;;3.33;2.08;;;16.40;99.90;;;;;;5050681;28;20128;-82
2022/08/29 07:13:51;;;;;;;5.45;2.20;;;16.60;99.90;;;;;;5034089;28;20127;-82
2022/08/29 07:16:17;;;;;;;2.80;2.05;;;16.70;99.90;;;;;;5050643;28;20533;-82
2022/08/29 07:18:44;;;;;;;4.20;2.47;;;16.80;99.90;;;;;;5033528;28;20077;-82
2022/08/29 07:21:13;;;;;;;3.13;1.80;;;16.80;99.90;;;;;;5034540;28;20040;-81
2022/08/29 07:23:39;;;;;;;4.07;2.30;;;16.90;99.90;;;;;;5050827;28;20478;-82
2022/08/29 07:26:27;;;;;;;3.47;1.70;;;16.90;99.90;;;;;;5033851;28;20419;-81
2022/08/29 07:28:56;;;;;;;4.72;1.90;;;16.90;99.90;;;;;;5050152;28;20044;-82
2022/08/29 07:31:22;;;;;;;4.10;1.73;;;16.90;99.90;;;;;;5034036;28;20434;-82
2022/08/29 07:33:48;;;;;;;3.22;1.80;;;17.00;99.90;;;;;;5033539;28;20029;-82
2022/08/29 07:36:13;;;;;;;3.58;1.90;;;17.10;99.90;;;;;;5033657;28;20045;-82
2022/08/29 07:38:39;;;;;;;3.70;1.67;;;17.20;99.90;;;;;;5033431;28;20037;-82
2022/08/29 07:41:10;;;;;;;3.35;1.75;;;17.30;99.90;;;;;;5050104;28;20114;-81
2022/08/29 07:43:36;;;;;;;2.70;1.70;;;17.30;99.90;;;;;;5033646;28;20052;-82
2022/08/29 07:46:11;;;;;;;5.13;1.77;;;17.50;99.90;;;;;;5033637;28;20045;-82
2022/08/29 07:48:38;;;;;;;2.35;1.45;;;17.70;99.90;;;;;;5033663;28;20407;-82
2022/08/29 07:51:18;;;;;;;3.65;1.73;;;17.90;99.90;;;;;;5050076;28;20041;-82
2022/08/29 07:53:44;;;;;;;4.22;1.80;;;18.00;99.90;;;;;;5033540;28;20044;-82
2022/08/29 07:56:13;;;;;;;2.55;1.55;;;18.10;99.90;;;;;;5033504;28;20073;-82
2022/08/29 07:58:40;;;;;;;4.80;1.65;;;18.30;99.90;;;;;;5050038;28;20106;-82
2022/08/29 08:01:05;;;;;;;4.40;1.67;;;18.40;99.90;;;;;;5033406;28;20178;-82
2022/08/29 08:03:33;;;;;;;3.35;1.55;;;18.40;99.90;;;;;;5033681;28;20127;-82
2022/08/29 08:05:58;;;;;;;3.17;1.48;;;18.60;99.90;;;;;;5033416;28;20518;-83
2022/08/29 08:08:25;;;;;;;2.60;1.55;;;18.60;99.90;;;;;;5033882;28;20083;-82
2022/08/29 08:10:51;;;;;;;3.65;1.50;;;18.60;99.90;;;;;;5037082;28;20122;-82
2022/08/29 08:13:16;;;;;;;3.17;1.50;;;18.70;99.90;;;;;;5053634;28;20099;-82
2022/08/29 08:15:43;;;;;;;2.58;1.50;;;19.00;99.90;;;;;;5037094;28;20044;-82
2022/08/29 08:18:09;;;;;;;3.40;1.40;;;19.30;99.90;;;;;;5036727;28;20049;-82
2022/08/29 08:20:34;;;;;;;2.55;1.35;;;19.40;99.90;;;;;;5036617;28;20048;-82
2022/08/29 08:23:00;;;;;;;2.00;1.10;;;19.50;99.90;;;;;;5037187;28;20103;-82
2022/08/29 08:25:25;;;;;;;2.25;1.17;;;19.60;99.90;;;;;;5036833;28;20044;-82
2022/08/29 08:27:52;;;;;;;2.85;1.20;;;19.80;99.90;;;;;;5036638;28;20041;-81
2022/08/29 08:30:18;;;;;;;2.17;1.27;;;19.90;99.90;;;;;;5036640;28;20399;-81
2022/08/29 08:32:45;;;;;;;2.55;0.90;;;20.10;99.90;;;;;;5036763;28;20083;-82
2022/08/29 08:35:11;;;;;;;2.55;1.08;;;20.00;99.90;;;;;;5053437;28;20450;-82
2022/08/29 08:37:38;;;;;;;3.05;1.10;;;20.00;99.90;;;;;;5036452;28;20158;-82
2022/08/29 08:40:04;;;;;;;2.15;1.10;;;20.10;99.90;;;;;;5036583;28;20083;-82
2022/08/29 08:42:43;;;;;;;2.22;1.00;;;20.10;99.90;;;;;;5036604;28;20124;-81
2022/08/29 08:45:21;;;;;;;2.50;1.27;;;20.20;99.90;;;;;;5036264;28;20044;-82
2022/08/29 08:47:51;;;;;;;1.98;1.00;;;20.30;99.90;;;;;;5053004;28;20086;-81
2022/08/29 08:50:52;;;;;;;2.08;1.27;;;20.30;99.90;;;;;;5036681;28;20478;-81
2022/08/29 08:53:36;;;;;;;3.30;1.33;;;20.20;99.90;;;;;;5022598;28;20049;-81
2022/08/29 08:56:11;;;;;;;2.05;1.10;;;20.30;99.90;;;;;;5036247;28;20040;-81
2022/08/29 08:58:41;;;;;;;2.22;1.20;;;20.40;99.90;;;;;;5052829;28;20041;-81
2022/08/29 09:01:21;;;;;;;1.58;0.80;;;20.40;99.90;;;;;;5052702;28;20469;-81
2022/08/29 09:03:59;;;;;;;2.90;1.30;;;20.30;99.90;;;;;;5036197;28;20052;-82
2022/08/29 09:06:52;;;;;;;2.65;1.13;;;20.30;99.90;;;;;;5052647;28;20076;-81
2022/08/29 09:09:37;;;;;;;2.85;1.40;;;20.30;99.90;;;;;;5036278;28;20044;-81
2022/08/29 09:12:23;;;;;;;1.95;1.00;;;20.30;99.90;;;;;;5052494;28;20518;-81
2022/08/29 09:15:13;;;;;;;2.00;1.13;;;20.30;99.90;;;;;;5052411;28;20120;-81
2022/08/29 09:17:56;;;;;;;1.45;1.30;;;20.20;99.90;;;;;;5035726;28;20043;-82
2022/08/29 09:20:27;;;;;;;1.73;1.10;;;20.10;99.90;;;;;;5052142;28;20567;-81
2022/08/29 09:23:19;;;;;;;2.00;1.23;;;20.20;99.90;;;;;;5052806;28;20135;-81
2022/08/29 09:25:45;;;;;;;2.38;1.20;;;20.30;99.90;;;;;;5035943;28;20198;-81
2022/08/29 09:28:11;;;;;;;4.60;1.40;;;20.40;99.90;;;;;;5052067;28;20124;-81
2022/08/29 09:30:40;;;;;;;2.03;1.05;;;20.50;99.90;;;;;;5052453;28;20120;-81
2022/08/29 09:33:10;;;;;;;2.60;1.25;;;20.60;99.90;;;;;;5052151;28;20088;-81
2022/08/29 09:35:50;;;;;;;3.38;1.42;;;20.80;99.90;;;;;;5035741;28;20045;-81
2022/08/29 09:38:16;;;;;;;3.28;1.42;;;21.00;99.90;;;;;;5035399;28;20048;-80
2022/08/29 09:41:01;;;;;;;1.52;0.95;;;21.30;99.90;;;;;;5035438;28;20041;-80
2022/08/29 09:43:39;;;;;;;3.38;1.17;;;21.60;99.90;;;;;;5052060;28;20041;-80
2022/08/29 09:46:20;;;;;;;2.80;1.52;;;21.90;99.90;;;;;;5035190;28;20041;-80
2022/08/29 09:48:52;;;;;;;3.28;1.58;;;21.90;99.90;;;;;;5052069;28;20482;-80
2022/08/29 09:51:34;;;;;;;1.45;0.90;;;21.90;99.90;;;;;;5035295;28;20433;-80
2022/08/29 09:54:25;;;;;;;1.60;0.80;;;21.90;99.90;;;;;;5035545;28;20063;-80
2022/08/29 09:57:27;;;;;;;2.63;1.17;;;22.10;99.90;;;;;;5035005;28;20093;-81
2022/08/29 10:00:17;;;;;;;2.17;1.10;;;22.30;99.90;;;;;;5035125;28;20136;-81
2022/08/29 10:02:48;;;;;;;2.53;1.00;;;22.50;99.90;;;;;;5035178;28;20616;-81
2022/08/29 10:05:33;;;;;;;1.35;0.80;;;22.90;99.90;;;;;;5035064;28;20041;-81
2022/08/29 10:08:01;;;;;;;1.85;1.20;;;23.30;99.90;;;;;;5051348;28;20072;-82
2022/08/29 10:10:31;;;;;;;2.03;1.00;;;23.60;99.90;;;;;;5051572;28;20029;-80
2022/08/29 10:13:18;;;;;;;3.90;1.15;;;23.80;99.90;;;;;;5034890;28;20047;-82
2022/08/29 10:16:14;;;;;;;2.03;0.98;;;23.60;95.20;;;;;;5035454;28;20036;-81
2022/08/29 10:18:45;;;;;;;1.85;0.90;;;23.10;95.90;;;;;;5051611;28;20390;-81
2022/08/29 10:21:17;;;;;;;2.50;1.25;;;23.10;99.90;;;;;;5051707;28;20037;-81
2022/08/29 10:23:48;;;;;;;2.47;1.25;;;23.80;99.90;;;;;;5034873;28;20040;-81
2022/08/29 10:26:51;;;;;;;3.80;1.15;;;24.90;99.90;;;;;;5051401;28;20110;-80
2022/08/29 10:29:39;;;;;;;3.10;1.20;;;25.60;95.00;;;;;;5020387;28;20391;-82
2022/08/29 10:32:33;;;;;;;2.05;1.00;;;25.20;81.10;;;;;;5034229;28;20072;-82
2022/08/29 10:35:23;;;;;;;4.32;1.30;;;24.60;86.90;;;;;;5051292;28;20086;-81
2022/08/29 10:38:07;;;;;;;1.95;1.05;;;24.00;92.00;;;;;;5034785;28;20068;-80
2022/08/29 10:41:01;;;;;;;2.80;1.30;;;23.60;94.70;;;;;;5051192;28;20036;-80
2022/08/29 10:43:45;;;;;;;3.15;1.20;;;23.40;94.60;;;;;;5034263;28;20083;-81
2022/08/29 10:46:22;;;;;;;1.92;0.93;;;23.30;96.50;;;;;;5034475;28;20033;-81
2022/08/29 10:49:16;;;;;;;2.65;1.20;;;23.80;98.00;;;;;;5051150;28;20124;-81
2022/08/29 10:51:42;;;;;;;1.80;0.93;;;24.50;94.60;;;;;;5033624;28;20270;-80
2022/08/29 10:54:45;;;;;;;2.38;1.17;;;24.60;93.20;;;;;;5035012;28;20037;-81
2022/08/29 10:57:19;;;;;;;4.07;1.08;;;24.40;89.80;;;;;;5034138;28;20072;-81
2022/08/29 10:59:53;;;;;;;1.52;0.80;;;24.20;91.40;;;;;;5034471;28;20673;-81
2022/08/29 11:02:42;;;;;;;1.73;0.88;;;23.90;91.30;;;;;;5051291;28;20071;-81
2022/08/29 11:05:14;;;;;;;1.40;0.90;;;23.80;91.60;;;;;;5034105;28;20037;-81
2022/08/29 11:07:45;;;;;;;1.98;0.80;;;23.70;92.60;;;;;;5034282;28;20398;-81
2022/08/29 11:10:24;;;;;;;2.75;1.10;;;23.60;92.00;;;;;;5050807;28;20116;-81
2022/08/29 11:13:05;;;;;;;3.00;1.13;;;23.60;92.70;;;;;;5034056;28;20047;-81
2022/08/29 11:15:45;;;;;;;1.42;0.90;;;23.50;90.40;;;;;;5050595;28;20037;-82
2022/08/29 11:18:19;;;;;;;2.50;1.40;;;23.30;88.40;;;;;;5033775;28;20045;-81
2022/08/29 11:21:02;;;;;;;2.17;1.10;;;23.40;90.80;;;;;;5034259;28;20554;-81
2022/08/29 11:23:39;;;;;;;;;;;23.80;90.50;;;;;;5034491;28;20052;-81
2022/08/29 11:26:17;;;;;;;1.83;1.05;;;24.20;90.00;;;;;;5050797;28;19932;-81
2022/08/29 11:29:12;;;;;;;2.22;1.23;;;24.80;92.30;;;;;;5050622;28;20048;-81
2022/08/29 11:32:10;;;;;;;1.80;0.98;;;25.40;88.00;;;;;;5015268;28;20645;-82
2022/08/29 11:34:42;;;;;;;2.38;1.10;;;25.10;76.00;;;;;;5034127;28;20033;-81
2022/08/29 11:37:41;;;;;;;2.45;1.20;;;24.60;77.00;;;;;;5033462;28;20045;-82
2022/08/29 11:40:28;;;;;;;3.38;1.30;;;24.10;78.20;;;;;;5034013;28;20049;-81
2022/08/29 11:42:58;;;;;;;1.58;1.08;;;23.80;79.50;;;;;;5035478;28;20037;-81
2022/08/29 11:45:28;;;;;;;2.15;1.00;;;23.60;82.10;;;;;;5054689;28;20503;-81
2022/08/29 11:47:57;;;;;;;2.95;1.17;;;23.50;82.80;;;;;;5054621;28;20128;-81
2022/08/29 11:50:35;;;;;;;2.38;1.02;;;23.50;85.70;;;;;;5054318;28;20116;-81
2022/08/29 11:53:19;;;;;;;2.13;1.20;;;23.80;83.50;;;;;;5037715;28;20036;-81
2022/08/29 11:56:10;;;;;;;3.42;1.20;;;24.30;85.10;;;;;;5037854;28;20053;-81
2022/08/29 11:58:38;;;;;;;1.42;1.10;;;24.60;83.20;;;;;;5054116;28;20083;-81
2022/08/29 12:01:05;;;;;;;1.88;1.38;;;24.80;83.70;;;;;;5054455;28;20531;-81
2022/08/29 12:03:34;;;;;;;1.65;1.10;;;25.10;84.00;;;;;;5037380;28;20037;-82
2022/08/29 12:06:18;;;;;;;2.58;1.30;;;25.20;71.40;;;;;;5053782;28;20037;-81
2022/08/29 12:09:02;;;;;;;2.33;1.00;;;25.10;75.60;;;;;;5053887;28;20039;-81
2022/08/29 12:12:06;;;;;;;2.60;1.33;;;24.60;75.10;;;;;;5054023;28;20061;-81
2022/08/29 12:14:44;;;;;;;2.42;1.20;;;24.30;78.30;;;;;;5037589;28;20040;-80
2022/08/29 12:17:30;;;;;;;1.85;1.20;;;24.00;80.00;;;;;;5037494;28;20400;-80
2022/08/29 12:19:55;;;;;;;2.35;1.10;;;23.80;82.70;;;;;;5037109;28;20186;-80
2022/08/29 12:22:52;;;;;;;1.60;0.98;;;23.70;84.30;;;;;;5037230;28;20144;-80
2022/08/29 12:25:27;;;;;;;3.00;1.20;;;23.60;80.90;;;;;;5053798;28;20041;-81
2022/08/29 12:28:04;;;;;;;4.15;1.63;;;23.40;81.50;;;;;;5053622;28;20082;-81
2022/08/29 12:30:56;;;;;;;2.50;1.20;;;23.10;81.80;;;;;;5036983;28;20130;-81
2022/08/29 12:33:43;;;;;;;2.92;1.60;;;22.90;83.20;;;;;;5027686;28;20098;-81
2022/08/29 12:36:11;;;;;;;2.25;1.40;;;22.70;81.00;;;;;;5053826;28;20142;-81
2022/08/29 12:38:59;;;;;;;2.70;1.20;;;22.50;82.30;;;;;;5036579;28;20124;-81
2022/08/29 12:41:45;;;;;;;2.65;1.50;;;22.30;83.80;;;;;;5053267;28;20102;-81
2022/08/29 12:44:15;;;;;;;1.95;1.55;;;22.20;84.20;;;;;;5053521;28;20056;-81
2022/08/29 12:46:44;;;;;;;2.88;1.58;;;22.20;85.10;;;;;;5053190;28;20473;-81
2022/08/29 12:49:19;;;;;;;2.60;1.38;;;22.20;84.80;;;;;;5052799;28;20059;-81
2022/08/29 12:51:49;;;;;;;3.42;1.55;;;22.20;85.70;;;;;;5036425;28;20044;-82
2022/08/29 12:54:35;;;;;;;3.40;1.70;;;22.10;87.00;;;;;;5035780;28;20131;-81
2022/08/29 12:57:04;;;;;;;3.85;1.70;;;22.10;88.30;;;;;;5053051;28;20087;-82
2022/08/29 12:59:30;;;;;;;4.25;2.15;;;22.10;89.80;;;;;;5036200;28;20120;-82
2022/08/29 13:01:58;;;;;;;2.33;1.42;;;22.10;89.70;;;;;;5036116;28;20124;-81
2022/08/29 13:04:27;;;;;;;3.88;1.88;;;22.10;90.20;;;;;;5052798;28;20041;-82
2022/08/29 13:06:59;;;;;;;5.05;2.10;;;22.00;90.40;;;;;;5035919;28;20037;-81
2022/08/29 13:09:43;;;;;;;2.83;1.83;;;22.00;90.60;;;;;;5036146;28;20037;-81
2022/08/29 13:12:14;;;;;;;3.13;1.85;;;22.10;91.20;;;;;;5052794;28;20041;-82